createdAt,value
2023-04-03T00:01:12.087Z,8.60
2023-04-03T00:03:39.604Z,8.60
2023-04-03T00:06:08.120Z,8.60
2023-04-03T00:08:36.775Z,8.50
2023-04-03T00:11:05.011Z,8.40
2023-04-03T00:13:33.753Z,8.40
2023-04-03T00:16:01.429Z,8.30
2023-04-03T00:18:28.831Z,8.30
2023-04-03T00:20:56.443Z,8.30
2023-04-03T00:23:24.725Z,8.30
2023-04-03T00:25:53.557Z,8.50
2023-04-03T00:28:21.510Z,9.00
2023-04-03T00:30:53.110Z,9.60
2023-04-03T00:33:25.463Z,10.00
2023-04-03T00:35:53.388Z,10.10
2023-04-03T00:38:21.414Z,9.80
2023-04-03T00:40:50.496Z,9.30
2023-04-03T00:43:24.906Z,9.00
2023-04-03T00:45:57.154Z,8.80
2023-04-03T00:48:32.169Z,8.70
2023-04-03T00:51:00.468Z,8.80
2023-04-03T00:53:42.954Z,8.80
2023-04-03T00:56:14.155Z,8.90
2023-04-03T00:58:48.341Z,8.80
2023-04-03T01:01:21.641Z,8.70
2023-04-03T01:03:49.143Z,8.80
2023-04-03T01:06:19.696Z,8.90
2023-04-03T01:08:50.694Z,9.20
2023-04-03T01:11:18.409Z,9.30
2023-04-03T01:13:46.632Z,9.40
2023-04-03T01:16:14.298Z,9.20
2023-04-03T01:18:43.180Z,9.10
2023-04-03T01:21:29.443Z,8.80
2023-04-03T01:24:24.096Z,9.00
2023-04-03T01:26:51.704Z,8.90
2023-04-03T01:29:19.467Z,8.80
2023-04-03T01:31:53.052Z,8.60
2023-04-03T01:34:21.377Z,8.70
2023-04-03T01:36:49.015Z,8.80
2023-04-03T01:39:16.662Z,8.90
2023-04-03T01:41:44.361Z,8.80
2023-04-03T01:44:17.381Z,9.00
2023-04-03T01:46:46.209Z,8.70
2023-04-03T01:49:13.699Z,8.60
2023-04-03T01:51:41.195Z,8.20
2023-04-03T01:54:08.823Z,8.00
2023-04-03T01:56:36.725Z,7.90
2023-04-03T01:59:04.314Z,7.70
2023-04-03T02:01:32.035Z,7.70
2023-04-03T02:03:59.539Z,7.60
2023-04-03T02:06:27.990Z,7.60
2023-04-03T02:08:55.521Z,7.60
2023-04-03T02:11:22.988Z,7.60
2023-04-03T02:13:50.453Z,7.80
2023-04-03T02:16:17.914Z,7.70
2023-04-03T02:18:45.553Z,7.70
2023-04-03T02:23:41.053Z,7.50
2023-04-03T02:26:11.561Z,7.40
2023-04-03T02:28:39.134Z,7.40
2023-04-03T02:31:10.556Z,7.60
2023-04-03T02:33:39.488Z,7.80
2023-04-03T02:36:10.459Z,8.10
2023-04-03T02:38:40.203Z,8.20
2023-04-03T02:41:10.276Z,7.90
2023-04-03T02:43:38.887Z,7.70
2023-04-03T02:46:07.831Z,7.40
2023-04-03T02:48:35.425Z,7.30
2023-04-03T02:51:02.938Z,7.30
2023-04-03T02:53:30.381Z,7.10
2023-04-03T02:55:58.855Z,7.00
2023-04-03T03:00:57.188Z,7.30
2023-04-03T03:06:05.912Z,8.40
2023-04-03T03:08:35.288Z,8.40
2023-04-03T03:11:03.911Z,8.30
2023-04-03T03:13:31.836Z,8.00
2023-04-03T03:15:59.669Z,7.60
2023-04-03T03:18:27.649Z,7.60
2023-04-03T03:20:57.076Z,7.50
2023-04-03T03:23:27.170Z,7.40
2023-04-03T03:26:03.078Z,7.40
2023-04-03T03:28:31.245Z,7.30
2023-04-03T03:30:59.597Z,7.40
2023-04-03T03:33:27.596Z,7.30
2023-04-03T03:35:56.133Z,7.30
2023-04-03T03:38:24.414Z,7.00
2023-04-03T03:40:52.980Z,6.90
2023-04-03T03:43:21.987Z,6.90
2023-04-03T03:45:53.389Z,7.00
2023-04-03T03:48:21.983Z,7.40
2023-04-03T03:53:20.356Z,8.20
2023-04-03T03:55:49.385Z,8.40
2023-04-03T03:58:17.420Z,8.70
2023-04-03T04:00:44.951Z,9.10
2023-04-03T04:03:12.784Z,9.40
2023-04-03T04:05:41.221Z,9.50
2023-04-03T04:08:09.042Z,9.70
2023-04-03T04:10:38.537Z,10.00
2023-04-03T04:13:06.937Z,10.00
2023-04-03T04:15:35.599Z,10.00
2023-04-03T04:18:04.684Z,10.10
2023-04-03T04:20:33.098Z,10.00
2023-04-03T04:23:00.742Z,10.10
2023-04-03T04:25:28.916Z,10.10
2023-04-03T04:27:56.393Z,10.20
2023-04-03T04:30:23.870Z,10.30
2023-04-03T04:32:52.286Z,10.20
2023-04-03T04:35:19.906Z,10.20
2023-04-03T04:37:50.039Z,10.20
2023-04-03T04:40:18.486Z,10.30
2023-04-03T04:45:14.555Z,10.30
2023-04-03T04:47:44.313Z,10.30
2023-04-03T04:50:12.690Z,10.30
2023-04-03T04:52:40.898Z,10.20
2023-04-03T04:55:09.501Z,10.10
2023-04-03T04:57:38.177Z,10.00
2023-04-03T05:00:06.774Z,10.00
2023-04-03T05:02:36.671Z,10.00
2023-04-03T05:05:05.399Z,10.00
2023-04-03T05:07:34.510Z,10.10
2023-04-03T05:10:04.582Z,10.10
2023-04-03T05:12:33.650Z,10.10
2023-04-03T05:15:04.315Z,10.50
2023-04-03T05:17:32.657Z,10.60
2023-04-03T05:20:00.844Z,10.70
2023-04-03T05:22:29.447Z,10.80
2023-04-03T05:25:02.029Z,11.00
2023-04-03T05:27:29.604Z,11.10
2023-04-03T05:29:59.284Z,11.20
2023-04-03T05:32:29.952Z,11.20
2023-04-03T05:35:17.778Z,11.30
2023-04-03T05:37:47.462Z,11.40
2023-04-03T05:40:18.583Z,11.50
2023-04-03T05:42:48.311Z,11.60
2023-04-03T05:45:17.713Z,11.60
2023-04-03T05:47:45.879Z,11.80
2023-04-03T05:50:13.487Z,11.80
2023-04-03T05:52:45.255Z,12.00
2023-04-03T05:55:13.214Z,12.30
2023-04-03T05:57:41.118Z,12.70
2023-04-03T06:00:13.647Z,13.00
2023-04-03T06:02:50.296Z,13.10
2023-04-03T06:05:23.686Z,14.40
2023-04-03T06:07:51.805Z,14.50
2023-04-03T06:10:19.372Z,16.10
2023-04-03T06:12:47.064Z,16.90
2023-04-03T06:15:14.522Z,17.20
2023-04-03T06:17:42.026Z,15.50
2023-04-03T06:20:10.534Z,14.30
2023-04-03T06:22:38.162Z,14.00
2023-04-03T06:25:07.305Z,15.60
2023-04-03T06:27:34.733Z,16.30
2023-04-03T06:30:02.178Z,16.50
2023-04-03T06:32:29.790Z,16.70
2023-04-03T06:34:58.218Z,16.40
2023-04-03T06:37:33.301Z,16.30
2023-04-03T06:40:01.568Z,16.50
2023-04-03T06:42:29.103Z,16.70
2023-04-03T06:45:06.108Z,17.80
2023-04-03T06:47:33.633Z,17.70
2023-04-03T06:50:01.321Z,17.70
2023-04-03T06:52:28.774Z,17.20
2023-04-03T06:54:58.745Z,16.60
2023-04-03T06:57:26.580Z,15.20
2023-04-03T06:59:54.117Z,15.50
2023-04-03T07:02:22.056Z,15.70
2023-04-03T07:04:49.798Z,15.30
2023-04-03T07:07:18.541Z,14.70
2023-04-03T07:09:47.992Z,15.00
2023-04-03T07:12:16.062Z,15.10
2023-04-03T07:14:43.775Z,15.20
2023-04-03T07:17:11.532Z,15.40
2023-04-03T07:19:39.018Z,15.10
2023-04-03T07:22:06.459Z,14.60
2023-04-03T07:24:34.056Z,15.30
2023-04-03T07:27:02.588Z,15.60
2023-04-03T07:29:30.103Z,16.00
2023-04-03T07:31:57.775Z,15.80
2023-04-03T07:34:25.299Z,15.80
2023-04-03T07:36:52.768Z,16.40
2023-04-03T07:39:20.156Z,16.70
2023-04-03T07:41:47.668Z,14.60
2023-04-03T07:44:15.492Z,14.50
2023-04-03T07:46:43.565Z,14.20
2023-04-03T07:49:11.121Z,14.10
2023-04-03T07:51:38.854Z,13.80
2023-04-03T07:54:06.435Z,14.00
2023-04-03T07:56:34.539Z,14.20
2023-04-03T07:59:02.161Z,13.70
2023-04-03T08:01:29.951Z,13.70
2023-04-03T08:03:57.523Z,13.90
2023-04-03T08:06:37.519Z,13.80
2023-04-03T08:09:12.581Z,13.80
2023-04-03T08:11:40.840Z,13.90
2023-04-03T08:14:08.698Z,13.90
2023-04-03T08:16:36.435Z,13.70
2023-04-03T08:19:07.125Z,14.00
2023-04-03T08:21:37.073Z,14.20
2023-04-03T08:24:05.216Z,14.30
2023-04-03T08:26:32.730Z,13.90
2023-04-03T08:29:00.355Z,14.20
2023-04-03T08:31:28.840Z,14.00
2023-04-03T08:33:58.505Z,14.10
2023-04-03T08:36:28.702Z,14.20
2023-04-03T08:38:57.840Z,14.20
2023-04-03T08:41:40.790Z,14.20
2023-04-03T08:44:26.746Z,14.30
2023-04-03T08:47:12.344Z,14.20
2023-04-03T08:49:52.379Z,14.30
2023-04-03T08:52:29.146Z,14.30
2023-04-03T08:55:01.975Z,14.50
2023-04-03T08:57:36.881Z,14.50
2023-04-03T09:00:24.238Z,14.30
2023-04-03T09:02:54.901Z,14.40
2023-04-03T09:05:45.486Z,14.40
2023-04-03T09:08:22.991Z,14.20
2023-04-03T09:10:56.068Z,14.30
2023-04-03T09:13:44.781Z,14.60
2023-04-03T09:16:37.603Z,14.60
2023-04-03T09:19:21.978Z,14.70
2023-04-03T09:21:49.556Z,15.20
2023-04-03T09:24:18.582Z,15.10
2023-04-03T09:27:05.159Z,15.00
2023-04-03T09:29:34.867Z,15.00
2023-04-03T09:32:10.769Z,15.10
2023-04-03T09:34:39.199Z,14.80
2023-04-03T09:37:07.237Z,14.60
2023-04-03T09:39:51.641Z,14.50
2023-04-03T09:42:25.083Z,14.40
2023-04-03T09:45:01.289Z,15.00
2023-04-03T09:47:36.063Z,15.10
2023-04-03T09:50:22.094Z,15.30
2023-04-03T09:52:52.807Z,15.60
2023-04-03T09:55:30.770Z,15.10
2023-04-03T09:58:01.053Z,15.30
2023-04-03T10:00:37.619Z,15.40
2023-04-03T10:03:06.954Z,15.20
2023-04-03T10:05:40.041Z,15.10
2023-04-03T10:08:16.571Z,14.70
2023-04-03T10:10:46.606Z,14.70
2023-04-03T10:13:22.102Z,14.60
2023-04-03T10:15:57.425Z,14.90
2023-04-03T10:18:34.448Z,15.10
2023-04-03T10:21:27.200Z,14.80
2023-04-03T10:24:27.422Z,14.90
2023-04-03T10:27:02.626Z,15.30
2023-04-03T10:29:48.416Z,15.30
2023-04-03T10:32:28.205Z,15.10
2023-04-03T10:35:21.660Z,15.10
2023-04-03T10:38:17.265Z,15.20
2023-04-03T10:41:00.191Z,15.00
2023-04-03T10:43:39.255Z,14.80
2023-04-03T10:46:41.949Z,14.80
2023-04-03T10:49:29.984Z,14.90
2023-04-03T10:52:06.071Z,15.20
2023-04-03T10:54:43.387Z,15.20
2023-04-03T10:57:14.054Z,15.00
2023-04-03T10:59:53.968Z,15.30
2023-04-03T11:02:28.530Z,15.10
2023-04-03T11:05:19.594Z,15.10
2023-04-03T11:07:52.557Z,15.00
2023-04-03T11:10:27.324Z,15.20
2023-04-03T11:15:35.962Z,15.50
2023-04-03T11:18:11.883Z,15.70
2023-04-03T11:20:45.487Z,15.80
2023-04-03T11:23:25.654Z,15.20
2023-04-03T11:25:59.677Z,15.10
2023-04-03T11:28:27.460Z,14.90
2023-04-03T11:31:13.773Z,14.70
2023-04-03T11:33:59.933Z,14.90
2023-04-03T11:36:36.308Z,15.00
2023-04-03T11:39:30.367Z,15.20
2023-04-03T11:42:20.829Z,14.80
2023-04-03T11:44:48.641Z,14.80
2023-04-03T11:47:47.034Z,14.90
2023-04-03T11:50:43.227Z,15.40
2023-04-03T11:53:13.829Z,15.70
2023-04-03T11:55:50.743Z,15.70
2023-04-03T11:58:19.489Z,15.30
2023-04-03T12:00:55.142Z,14.80
2023-04-03T12:03:34.274Z,14.90
2023-04-03T12:06:17.949Z,15.00
2023-04-03T12:08:47.147Z,14.90
2023-04-03T12:11:14.884Z,15.40
2023-04-03T12:13:49.848Z,15.10
2023-04-03T12:16:39.323Z,15.50
2023-04-03T12:19:16.093Z,15.40
2023-04-03T12:21:47.476Z,15.40
2023-04-03T12:24:17.999Z,15.10
2023-04-03T12:27:10.253Z,15.10
2023-04-03T12:29:55.067Z,15.00
2023-04-03T12:32:41.425Z,14.90
2023-04-03T12:35:15.031Z,14.90
2023-04-03T12:38:19.965Z,14.80
2023-04-03T12:41:37.205Z,14.90
2023-04-03T12:44:27.181Z,15.00
2023-04-03T12:46:55.100Z,15.30
2023-04-03T12:49:31.148Z,15.20
2023-04-03T12:51:59.795Z,15.50
2023-04-03T12:54:35.811Z,15.70
2023-04-03T12:57:25.669Z,15.60
2023-04-03T12:59:53.193Z,15.80
2023-04-03T13:02:31.080Z,15.80
2023-04-03T13:05:19.974Z,15.50
2023-04-03T13:08:01.019Z,15.70
2023-04-03T13:10:28.518Z,15.50
2023-04-03T13:13:08.438Z,15.50
2023-04-03T13:15:49.933Z,15.10
2023-04-03T13:18:23.751Z,15.30
2023-04-03T13:20:51.987Z,15.10
2023-04-03T13:23:21.709Z,15.10
2023-04-03T13:25:50.890Z,15.30
2023-04-03T13:28:22.559Z,15.60
2023-04-03T13:31:00.631Z,15.40
2023-04-03T13:33:32.468Z,15.30
2023-04-03T13:36:20.353Z,15.70
2023-04-03T13:38:58.538Z,15.70
2023-04-03T13:41:32.603Z,15.50
2023-04-03T13:44:22.332Z,15.60
2023-04-03T13:46:51.533Z,15.50
2023-04-03T13:49:23.668Z,15.40
2023-04-03T13:52:00.564Z,15.40
2023-04-03T13:54:39.653Z,15.30
2023-04-03T13:57:17.080Z,15.30
2023-04-03T13:59:45.378Z,15.40
2023-04-03T14:02:34.369Z,15.40
2023-04-03T14:05:04.398Z,15.30
2023-04-03T14:07:32.343Z,15.10
2023-04-03T14:10:00.005Z,15.10
2023-04-03T14:12:35.106Z,15.10
2023-04-03T14:15:05.114Z,15.20
2023-04-03T14:17:32.686Z,15.30
2023-04-03T14:20:01.919Z,15.40
2023-04-03T14:22:32.808Z,15.30
2023-04-03T14:25:02.279Z,15.30
2023-04-03T14:27:35.713Z,15.20
2023-04-03T14:30:05.673Z,15.10
2023-04-03T14:32:33.885Z,14.90
2023-04-03T14:35:01.658Z,15.30
2023-04-03T14:37:31.417Z,15.30
2023-04-03T14:40:01.511Z,15.30
2023-04-03T14:42:32.397Z,15.10
2023-04-03T14:45:01.493Z,15.10
2023-04-03T14:47:32.171Z,15.10
2023-04-03T14:50:06.217Z,15.00
2023-04-03T14:52:36.754Z,15.20
2023-04-03T14:55:07.183Z,15.10
2023-04-03T14:57:35.659Z,15.20
2023-04-03T15:00:05.347Z,15.40
2023-04-03T15:02:40.294Z,15.30
2023-04-03T15:05:10.837Z,15.20
2023-04-03T15:08:01.578Z,15.10
2023-04-03T15:10:31.336Z,15.30
2023-04-03T15:12:59.015Z,15.30
2023-04-03T15:15:30.416Z,15.10
2023-04-03T15:17:59.206Z,15.30
2023-04-03T15:20:28.813Z,15.30
2023-04-03T15:22:57.540Z,15.30
2023-04-03T15:25:26.481Z,15.20
2023-04-03T15:27:56.290Z,15.20
2023-04-03T15:30:23.901Z,15.20
2023-04-03T15:32:51.704Z,15.20
2023-04-03T15:35:19.408Z,15.30
2023-04-03T15:37:47.444Z,15.20
2023-04-03T15:40:15.258Z,15.30
2023-04-03T15:42:42.872Z,15.20
2023-04-03T15:45:11.304Z,15.10
2023-04-03T15:47:39.412Z,14.90
2023-04-03T15:50:08.863Z,14.90
2023-04-03T15:52:36.826Z,14.80
2023-04-03T15:55:05.595Z,14.90
2023-04-03T16:00:05.559Z,14.90
2023-04-03T16:02:35.064Z,14.80
2023-04-03T16:05:03.322Z,14.80
2023-04-03T16:07:31.304Z,14.80
2023-04-03T16:09:58.813Z,14.80
2023-04-03T16:12:26.378Z,14.80
2023-04-03T16:14:53.816Z,14.80
2023-04-03T16:17:21.402Z,14.70
2023-04-03T16:19:49.303Z,14.70
2023-04-03T16:22:17.070Z,14.70
2023-04-03T16:24:44.603Z,14.50
2023-04-03T16:27:12.096Z,14.40
2023-04-03T16:29:39.539Z,14.30
2023-04-03T16:32:07.117Z,14.20
2023-04-03T16:34:34.685Z,14.10
2023-04-03T16:37:02.424Z,14.10
2023-04-03T16:39:29.904Z,14.00
2023-04-03T16:41:57.331Z,14.10
2023-04-03T16:44:24.772Z,14.10
2023-04-03T16:46:52.468Z,14.10
2023-04-03T16:49:20.073Z,14.00
2023-04-03T16:51:49.719Z,14.10
2023-04-03T16:54:17.161Z,14.00
2023-04-03T16:56:44.637Z,13.80
2023-04-03T16:59:12.139Z,13.80
2023-04-03T17:01:39.717Z,13.70
2023-04-03T17:04:07.444Z,13.70
2023-04-03T17:06:35.571Z,13.70
2023-04-03T17:09:03.246Z,13.60
2023-04-03T17:11:31.473Z,13.40
2023-04-03T17:13:59.105Z,13.50
2023-04-03T17:16:27.355Z,13.40
2023-04-03T17:18:55.620Z,13.40
2023-04-03T17:21:23.540Z,13.40
2023-04-03T17:23:58.396Z,13.30
2023-04-03T17:26:27.204Z,13.30
2023-04-03T17:28:54.942Z,13.20
2023-04-03T17:31:22.382Z,13.20
2023-04-03T17:33:50.005Z,13.10
2023-04-03T17:36:17.498Z,13.10
2023-04-03T17:38:45.245Z,13.00
2023-04-03T17:41:12.734Z,13.10
2023-04-03T17:43:40.345Z,13.00
2023-04-03T17:46:10.532Z,13.00
2023-04-03T17:48:39.863Z,13.00
2023-04-03T17:51:10.478Z,12.90
2023-04-03T17:53:38.378Z,12.90
2023-04-03T17:56:10.893Z,12.90
2023-04-03T17:58:38.487Z,12.80
2023-04-03T18:01:18.160Z,12.80
2023-04-03T18:03:46.732Z,12.70
2023-04-03T18:06:16.963Z,12.70
2023-04-03T18:08:56.438Z,12.70
2023-04-03T18:11:28.212Z,12.50
2023-04-03T18:14:00.162Z,12.60
2023-04-03T18:16:28.939Z,12.50
2023-04-03T18:19:06.987Z,12.40
2023-04-03T18:21:45.887Z,12.40
2023-04-03T18:24:16.741Z,12.30
2023-04-03T18:26:48.089Z,12.30
2023-04-03T18:29:16.359Z,12.20
2023-04-03T18:31:47.423Z,12.20
2023-04-03T18:34:14.840Z,12.30
2023-04-03T18:36:42.277Z,12.20
2023-04-03T18:39:09.886Z,12.30
2023-04-03T18:41:37.846Z,12.10
2023-04-03T18:44:10.303Z,12.20
2023-04-03T18:49:11.956Z,12.00
2023-04-03T18:51:39.657Z,12.00
2023-04-03T18:54:09.961Z,12.10
2023-04-03T18:56:38.677Z,12.00
2023-04-03T18:59:06.230Z,12.00
2023-04-03T19:01:34.922Z,12.10
2023-04-03T19:04:02.896Z,12.00
2023-04-03T19:06:30.566Z,11.90
2023-04-03T19:08:58.060Z,11.80
2023-04-03T19:11:25.554Z,11.60
2023-04-03T19:14:10.464Z,11.30
2023-04-03T19:16:41.205Z,11.10
2023-04-03T19:19:08.753Z,10.90
2023-04-03T19:21:40.800Z,10.80
2023-04-03T19:24:09.167Z,10.80
2023-04-03T19:26:36.784Z,10.70
2023-04-03T19:31:33.907Z,10.50
2023-04-03T19:34:02.799Z,10.40
2023-04-03T19:36:31.356Z,10.30
2023-04-03T19:38:58.807Z,10.40
2023-04-03T19:41:30.284Z,10.40
2023-04-03T19:43:58.186Z,10.50
2023-04-03T19:46:28.200Z,10.50
2023-04-03T19:48:56.070Z,10.60
2023-04-03T19:51:23.755Z,10.90
2023-04-03T19:53:51.876Z,11.30
2023-04-03T19:56:21.922Z,11.30
2023-04-03T19:58:54.286Z,11.20
2023-04-03T20:01:24.310Z,11.10
2023-04-03T20:03:52.497Z,11.00
2023-04-03T20:06:20.101Z,10.90
2023-04-03T20:08:47.639Z,10.80
2023-04-03T20:11:15.507Z,10.80
2023-04-03T20:13:42.989Z,10.80
2023-04-03T20:16:10.829Z,10.80
2023-04-03T20:18:38.805Z,10.80
2023-04-03T20:21:07.314Z,10.80
2023-04-03T20:23:37.239Z,10.70
2023-04-03T20:26:14.908Z,10.70
2023-04-03T20:28:43.510Z,10.70
2023-04-03T20:31:13.701Z,10.70
2023-04-03T20:33:41.165Z,10.70
2023-04-03T20:36:09.037Z,10.70
2023-04-03T20:38:36.471Z,10.70
2023-04-03T20:41:04.965Z,10.80
2023-04-03T20:43:32.492Z,10.80
2023-04-03T20:46:01.490Z,10.80
2023-04-03T20:48:31.164Z,10.80
2023-04-03T20:50:58.974Z,10.90
2023-04-03T20:53:27.228Z,10.90
2023-04-03T20:55:59.987Z,10.90
2023-04-03T20:58:30.709Z,10.90
2023-04-03T21:00:58.846Z,10.80
2023-04-03T21:03:30.315Z,10.80
2023-04-03T21:06:00.824Z,10.80
2023-04-03T21:09:06.025Z,10.70
2023-04-03T21:12:10.899Z,10.80
2023-04-03T21:15:15.723Z,10.70
2023-04-03T21:18:08.185Z,10.60
2023-04-03T21:20:35.684Z,10.70
2023-04-03T21:23:04.110Z,10.70
2023-04-03T21:25:32.085Z,10.70
2023-04-03T21:27:59.793Z,10.70
2023-04-03T21:30:27.258Z,10.80
2023-04-03T21:32:54.746Z,10.70
2023-04-03T21:35:22.778Z,10.80
2023-04-03T21:37:50.262Z,10.70
2023-04-03T21:40:19.179Z,10.60
2023-04-03T21:42:46.745Z,10.60
2023-04-03T21:45:16.165Z,10.60
2023-04-03T21:47:44.783Z,10.50
2023-04-03T21:50:12.411Z,10.50
2023-04-03T21:52:39.846Z,10.50
2023-04-03T21:55:08.643Z,10.50
2023-04-03T21:57:36.289Z,10.40
2023-04-03T22:00:10.857Z,10.40
2023-04-03T22:02:41.572Z,10.40
2023-04-03T22:05:09.115Z,10.30
2023-04-03T22:07:36.525Z,10.30
2023-04-03T22:10:04.995Z,10.20
2023-04-03T22:12:32.684Z,10.20
2023-04-03T22:15:00.543Z,10.20
2023-04-03T22:17:31.205Z,10.10
2023-04-03T22:19:58.687Z,10.10
2023-04-03T22:22:26.523Z,10.10
2023-04-03T22:24:53.942Z,10.00
2023-04-03T22:27:21.410Z,9.90
2023-04-03T22:29:48.804Z,10.00
2023-04-03T22:32:16.235Z,9.90
2023-04-03T22:34:43.712Z,10.00
2023-04-03T22:37:11.187Z,9.90
2023-04-03T22:39:38.617Z,9.90
2023-04-03T22:42:07.497Z,9.90
2023-04-03T22:44:36.612Z,10.00
2023-04-03T22:47:04.304Z,9.90
2023-04-03T22:49:32.133Z,9.80
2023-04-03T22:51:59.704Z,9.80
2023-04-03T22:54:27.268Z,9.80
2023-04-03T22:56:55.546Z,9.70
2023-04-03T22:59:23.097Z,9.70
2023-04-03T23:01:50.487Z,9.80
2023-04-03T23:04:18.373Z,9.80
2023-04-03T23:06:45.864Z,9.70
2023-04-03T23:09:13.379Z,9.70
2023-04-03T23:11:40.802Z,9.70
2023-04-03T23:14:08.319Z,9.70
2023-04-03T23:16:35.952Z,9.60
2023-04-03T23:19:03.576Z,9.50
2023-04-03T23:21:31.121Z,9.60
2023-04-03T23:23:58.625Z,9.50
2023-04-03T23:26:26.546Z,9.40
2023-04-03T23:28:54.081Z,9.40
2023-04-03T23:31:21.722Z,9.20
2023-04-03T23:33:49.170Z,9.20
2023-04-03T23:36:16.965Z,9.10
2023-04-03T23:38:44.485Z,9.00
2023-04-03T23:41:12.910Z,9.00
2023-04-03T23:43:41.560Z,9.10
2023-04-03T23:46:09.049Z,9.10
2023-04-03T23:48:36.593Z,9.00
2023-04-03T23:51:04.088Z,9.00
2023-04-03T23:53:31.542Z,8.90
2023-04-03T23:55:59.026Z,8.80
2023-04-03T23:58:26.456Z,8.90
